sensor_id;sensor_type;location;lat;lon;timestamp;P1;durP1;ratioP1;P2;durP2;ratioP2
71360;SDS011;59166;48.908;1.870;2022-12-19T00:02:29;11.82;;;4.18;;
71360;SDS011;59166;48.908;1.870;2022-12-19T00:07:31;12.38;;;4.78;;
71360;SDS011;59166;48.908;1.870;2022-12-19T00:12:33;13.27;;;5.20;;
71360;SDS011;59166;48.908;1.870;2022-12-19T00:17:34;12.45;;;5.32;;
71360;SDS011;59166;48.908;1.870;2022-12-19T00:22:34;11.07;;;4.87;;
71360;SDS011;59166;48.908;1.870;2022-12-19T00:27:36;12.53;;;4.90;;
71360;SDS011;59166;48.908;1.870;2022-12-19T00:32:37;12.32;;;4.55;;
71360;SDS011;59166;48.908;1.870;2022-12-19T00:37:38;12.20;;;5.07;;
71360;SDS011;59166;48.908;1.870;2022-12-19T00:42:40;11.55;;;4.78;;
71360;SDS011;59166;48.908;1.870;2022-12-19T00:47:41;10.60;;;4.57;;
71360;SDS011;59166;48.908;1.870;2022-12-19T00:52:42;11.37;;;4.80;;
71360;SDS011;59166;48.908;1.870;2022-12-19T00:57:44;9.95;;;4.28;;
71360;SDS011;59166;48.908;1.870;2022-12-19T01:02:45;10.67;;;4.30;;
71360;SDS011;59166;48.908;1.870;2022-12-19T01:07:46;11.43;;;4.70;;
71360;SDS011;59166;48.908;1.870;2022-12-19T01:12:49;11.53;;;4.70;;
71360;SDS011;59166;48.908;1.870;2022-12-19T01:17:50;10.83;;;4.47;;
71360;SDS011;59166;48.908;1.870;2022-12-19T01:22:51;9.98;;;4.57;;
71360;SDS011;59166;48.908;1.870;2022-12-19T01:27:55;11.33;;;4.30;;
71360;SDS011;59166;48.908;1.870;2022-12-19T01:32:56;11.45;;;4.55;;
71360;SDS011;59166;48.908;1.870;2022-12-19T01:37:58;9.30;;;4.20;;
71360;SDS011;59166;48.908;1.870;2022-12-19T01:43:01;10.50;;;4.33;;
71360;SDS011;59166;48.908;1.870;2022-12-19T01:53:23;10.85;;;4.40;;
71360;SDS011;59166;48.908;1.870;2022-12-19T01:58:28;10.73;;;4.00;;
71360;SDS011;59166;48.908;1.870;2022-12-19T02:03:30;11.10;;;4.53;;
71360;SDS011;59166;48.908;1.870;2022-12-19T02:08:33;10.90;;;4.38;;
71360;SDS011;59166;48.908;1.870;2022-12-19T02:13:36;9.20;;;4.00;;
71360;SDS011;59166;48.908;1.870;2022-12-19T02:18:40;11.60;;;4.47;;
71360;SDS011;59166;48.908;1.870;2022-12-19T02:29:46;11.57;;;3.73;;
71360;SDS011;59166;48.908;1.870;2022-12-19T02:35:07;10.73;;;3.83;;
71360;SDS011;59166;48.908;1.870;2022-12-19T02:40:13;11.35;;;4.22;;
71360;SDS011;59166;48.908;1.870;2022-12-19T02:45:19;10.07;;;4.03;;
71360;SDS011;59166;48.908;1.870;2022-12-19T02:50:23;10.30;;;3.70;;
71360;SDS011;59166;48.908;1.870;2022-12-19T02:55:23;9.70;;;4.13;;
71360;SDS011;59166;48.908;1.870;2022-12-19T03:00:25;8.90;;;3.92;;
71360;SDS011;59166;48.908;1.870;2022-12-19T03:05:29;9.97;;;4.17;;
71360;SDS011;59166;48.908;1.870;2022-12-19T03:10:40;11.20;;;3.47;;
71360;SDS011;59166;48.908;1.870;2022-12-19T03:15:43;9.00;;;3.55;;
71360;SDS011;59166;48.908;1.870;2022-12-19T03:20:47;8.90;;;3.47;;
71360;SDS011;59166;48.908;1.870;2022-12-19T03:25:55;9.50;;;3.90;;
71360;SDS011;59166;48.908;1.870;2022-12-19T03:30:59;9.63;;;3.80;;
71360;SDS011;59166;48.908;1.870;2022-12-19T03:36:04;9.10;;;3.50;;
71360;SDS011;59166;48.908;1.870;2022-12-19T03:41:09;8.47;;;3.50;;
71360;SDS011;59166;48.908;1.870;2022-12-19T03:46:13;10.00;;;3.80;;
71360;SDS011;59166;48.908;1.870;2022-12-19T03:51:23;10.77;;;3.60;;
71360;SDS011;59166;48.908;1.870;2022-12-19T03:56:32;8.87;;;3.67;;
71360;SDS011;59166;48.908;1.870;2022-12-19T04:01:39;8.85;;;3.60;;
71360;SDS011;59166;48.908;1.870;2022-12-19T04:06:41;8.90;;;3.78;;
71360;SDS011;59166;48.908;1.870;2022-12-19T04:11:45;8.17;;;3.40;;
71360;SDS011;59166;48.908;1.870;2022-12-19T04:16:50;8.37;;;3.50;;
71360;SDS011;59166;48.908;1.870;2022-12-19T04:21:59;8.32;;;3.28;;
71360;SDS011;59166;48.908;1.870;2022-12-19T04:27:04;9.60;;;3.55;;
71360;SDS011;59166;48.908;1.870;2022-12-19T04:32:07;8.60;;;3.40;;
71360;SDS011;59166;48.908;1.870;2022-12-19T04:37:11;9.48;;;3.50;;
71360;SDS011;59166;48.908;1.870;2022-12-19T04:42:12;9.00;;;3.50;;
71360;SDS011;59166;48.908;1.870;2022-12-19T04:47:12;8.63;;;3.40;;
71360;SDS011;59166;48.908;1.870;2022-12-19T04:52:14;8.77;;;3.30;;
71360;SDS011;59166;48.908;1.870;2022-12-19T04:57:15;8.82;;;3.30;;
71360;SDS011;59166;48.908;1.870;2022-12-19T05:02:16;8.63;;;3.40;;
71360;SDS011;59166;48.908;1.870;2022-12-19T05:07:21;10.43;;;4.38;;
71360;SDS011;59166;48.908;1.870;2022-12-19T05:12:21;8.40;;;3.23;;
71360;SDS011;59166;48.908;1.870;2022-12-19T05:17:22;6.82;;;2.70;;
71360;SDS011;59166;48.908;1.870;2022-12-19T05:22:27;9.47;;;3.50;;
71360;SDS011;59166;48.908;1.870;2022-12-19T05:27:27;8.48;;;3.20;;
71360;SDS011;59166;48.908;1.870;2022-12-19T05:32:28;8.37;;;3.20;;
71360;SDS011;59166;48.908;1.870;2022-12-19T05:37:31;8.70;;;3.67;;
71360;SDS011;59166;48.908;1.870;2022-12-19T05:42:31;9.37;;;3.50;;
71360;SDS011;59166;48.908;1.870;2022-12-19T05:47:32;9.57;;;3.40;;
71360;SDS011;59166;48.908;1.870;2022-12-19T05:52:34;10.60;;;3.60;;
71360;SDS011;59166;48.908;1.870;2022-12-19T05:57:36;8.52;;;3.85;;
71360;SDS011;59166;48.908;1.870;2022-12-19T06:02:37;8.43;;;3.40;;
71360;SDS011;59166;48.908;1.870;2022-12-19T06:07:39;8.63;;;3.33;;
71360;SDS011;59166;48.908;1.870;2022-12-19T06:12:39;8.77;;;3.38;;
71360;SDS011;59166;48.908;1.870;2022-12-19T06:17:40;9.27;;;3.53;;
71360;SDS011;59166;48.908;1.870;2022-12-19T06:22:42;9.90;;;3.23;;
71360;SDS011;59166;48.908;1.870;2022-12-19T06:27:43;8.90;;;3.78;;
71360;SDS011;59166;48.908;1.870;2022-12-19T06:32:44;9.60;;;3.42;;
71360;SDS011;59166;48.908;1.870;2022-12-19T06:37:46;7.83;;;3.30;;
71360;SDS011;59166;48.908;1.870;2022-12-19T06:42:47;8.60;;;3.28;;
71360;SDS011;59166;48.908;1.870;2022-12-19T06:47:48;8.93;;;3.10;;
71360;SDS011;59166;48.908;1.870;2022-12-19T06:52:50;9.73;;;3.80;;
71360;SDS011;59166;48.908;1.870;2022-12-19T06:57:51;9.57;;;3.00;;
71360;SDS011;59166;48.908;1.870;2022-12-19T07:02:51;8.00;;;3.10;;
71360;SDS011;59166;48.908;1.870;2022-12-19T07:07:54;10.40;;;3.25;;
71360;SDS011;59166;48.908;1.870;2022-12-19T07:12:55;8.95;;;2.92;;
71360;SDS011;59166;48.908;1.870;2022-12-19T07:17:56;9.70;;;3.13;;
71360;SDS011;59166;48.908;1.870;2022-12-19T07:22:59;8.52;;;2.92;;
71360;SDS011;59166;48.908;1.870;2022-12-19T07:28:01;7.40;;;3.10;;
71360;SDS011;59166;48.908;1.870;2022-12-19T07:33:01;8.50;;;2.88;;
71360;SDS011;59166;48.908;1.870;2022-12-19T07:38:04;8.83;;;3.13;;
71360;SDS011;59166;48.908;1.870;2022-12-19T07:43:05;8.02;;;2.75;;
71360;SDS011;59166;48.908;1.870;2022-12-19T07:48:06;8.60;;;2.78;;
71360;SDS011;59166;48.908;1.870;2022-12-19T07:53:08;7.50;;;2.90;;
71360;SDS011;59166;48.908;1.870;2022-12-19T07:58:08;7.93;;;3.00;;
71360;SDS011;59166;48.908;1.870;2022-12-19T08:03:09;7.43;;;3.00;;
71360;SDS011;59166;48.908;1.870;2022-12-19T08:08:11;7.80;;;3.17;;
71360;SDS011;59166;48.908;1.870;2022-12-19T08:13:15;8.40;;;3.00;;
71360;SDS011;59166;48.908;1.870;2022-12-19T08:18:29;7.40;;;2.73;;
71360;SDS011;59166;48.908;1.870;2022-12-19T08:23:47;8.50;;;3.20;;
71360;SDS011;59166;48.908;1.870;2022-12-19T08:28:48;8.15;;;3.30;;
71360;SDS011;59166;48.908;1.870;2022-12-19T08:33:48;8.70;;;3.17;;
71360;SDS011;59166;48.908;1.870;2022-12-19T08:38:51;9.20;;;3.13;;
71360;SDS011;59166;48.908;1.870;2022-12-19T08:43:52;8.63;;;3.35;;
71360;SDS011;59166;48.908;1.870;2022-12-19T08:48:53;7.13;;;2.97;;
71360;SDS011;59166;48.908;1.870;2022-12-19T08:53:55;8.60;;;2.92;;
71360;SDS011;59166;48.908;1.870;2022-12-19T08:58:56;7.33;;;2.70;;
71360;SDS011;59166;48.908;1.870;2022-12-19T09:03:57;7.75;;;2.72;;
71360;SDS011;59166;48.908;1.870;2022-12-19T09:09:01;6.77;;;2.40;;
71360;SDS011;59166;48.908;1.870;2022-12-19T09:14:02;6.93;;;2.60;;
71360;SDS011;59166;48.908;1.870;2022-12-19T09:19:02;8.02;;;2.80;;
71360;SDS011;59166;48.908;1.870;2022-12-19T09:24:05;7.20;;;2.83;;
71360;SDS011;59166;48.908;1.870;2022-12-19T09:29:06;8.65;;;2.67;;
71360;SDS011;59166;48.908;1.870;2022-12-19T09:34:07;7.57;;;2.47;;
71360;SDS011;59166;48.908;1.870;2022-12-19T09:39:09;7.00;;;2.50;;
71360;SDS011;59166;48.908;1.870;2022-12-19T09:44:14;7.53;;;2.60;;
71360;SDS011;59166;48.908;1.870;2022-12-19T09:49:25;9.57;;;2.47;;
71360;SDS011;59166;48.908;1.870;2022-12-19T09:54:33;7.50;;;2.78;;
71360;SDS011;59166;48.908;1.870;2022-12-19T09:59:38;7.13;;;2.60;;
71360;SDS011;59166;48.908;1.870;2022-12-19T10:04:46;7.00;;;2.70;;
71360;SDS011;59166;48.908;1.870;2022-12-19T10:09:51;9.57;;;3.00;;
71360;SDS011;59166;48.908;1.870;2022-12-19T10:14:56;8.55;;;2.60;;
71360;SDS011;59166;48.908;1.870;2022-12-19T10:30:50;6.95;;;2.60;;
71360;SDS011;59166;48.908;1.870;2022-12-19T10:36:00;6.70;;;2.50;;
71360;SDS011;59166;48.908;1.870;2022-12-19T10:41:10;7.17;;;2.50;;
71360;SDS011;59166;48.908;1.870;2022-12-19T10:46:17;7.55;;;2.42;;
71360;SDS011;59166;48.908;1.870;2022-12-19T10:51:23;7.15;;;2.50;;
71360;SDS011;59166;48.908;1.870;2022-12-19T10:56:29;6.33;;;2.40;;
71360;SDS011;59166;48.908;1.870;2022-12-19T11:01:31;7.95;;;2.60;;
71360;SDS011;59166;48.908;1.870;2022-12-19T11:06:49;6.80;;;2.50;;
71360;SDS011;59166;48.908;1.870;2022-12-19T11:11:57;6.90;;;2.57;;
71360;SDS011;59166;48.908;1.870;2022-12-19T11:17:00;6.30;;;2.25;;
71360;SDS011;59166;48.908;1.870;2022-12-19T11:22:03;8.05;;;2.67;;
71360;SDS011;59166;48.908;1.870;2022-12-19T11:27:28;7.77;;;2.70;;
71360;SDS011;59166;48.908;1.870;2022-12-19T11:38:44;5.20;;;2.00;;
71360;SDS011;59166;48.908;1.870;2022-12-19T11:43:52;7.57;;;2.53;;
71360;SDS011;59166;48.908;1.870;2022-12-19T11:48:57;7.60;;;2.60;;
71360;SDS011;59166;48.908;1.870;2022-12-19T11:54:23;12.45;;;2.60;;
71360;SDS011;59166;48.908;1.870;2022-12-19T11:59:44;6.05;;;2.28;;
71360;SDS011;59166;48.908;1.870;2022-12-19T12:16:18;15.38;;;4.13;;
71360;SDS011;59166;48.908;1.870;2022-12-19T12:21:28;13.13;;;4.97;;
71360;SDS011;59166;48.908;1.870;2022-12-19T12:26:39;10.40;;;4.63;;
71360;SDS011;59166;48.908;1.870;2022-12-19T12:31:52;7.20;;;2.58;;
71360;SDS011;59166;48.908;1.870;2022-12-19T12:37:10;13.10;;;5.03;;
71360;SDS011;59166;48.908;1.870;2022-12-19T12:42:22;8.13;;;3.00;;
71360;SDS011;59166;48.908;1.870;2022-12-19T12:47:41;7.80;;;3.42;;
71360;SDS011;59166;48.908;1.870;2022-12-19T12:52:45;9.20;;;3.63;;
71360;SDS011;59166;48.908;1.870;2022-12-19T12:57:50;9.67;;;4.13;;
71360;SDS011;59166;48.908;1.870;2022-12-19T13:02:56;9.07;;;3.45;;
71360;SDS011;59166;48.908;1.870;2022-12-19T13:13:49;9.47;;;3.30;;
71360;SDS011;59166;48.908;1.870;2022-12-19T13:19:02;8.67;;;3.57;;
71360;SDS011;59166;48.908;1.870;2022-12-19T13:24:12;10.07;;;3.70;;
71360;SDS011;59166;48.908;1.870;2022-12-19T13:34:55;9.47;;;3.50;;
71360;SDS011;59166;48.908;1.870;2022-12-19T13:39:58;7.25;;;2.97;;
71360;SDS011;59166;48.908;1.870;2022-12-19T13:45:02;8.20;;;3.10;;
71360;SDS011;59166;48.908;1.870;2022-12-19T13:50:15;8.93;;;3.10;;
71360;SDS011;59166;48.908;1.870;2022-12-19T13:55:26;8.20;;;3.22;;
71360;SDS011;59166;48.908;1.870;2022-12-19T14:00:30;10.52;;;3.80;;
71360;SDS011;59166;48.908;1.870;2022-12-19T14:05:37;19.93;;;8.63;;
71360;SDS011;59166;48.908;1.870;2022-12-19T14:10:40;12.27;;;4.60;;
71360;SDS011;59166;48.908;1.870;2022-12-19T14:15:44;9.07;;;3.63;;
71360;SDS011;59166;48.908;1.870;2022-12-19T14:20:51;9.90;;;3.38;;
71360;SDS011;59166;48.908;1.870;2022-12-19T14:26:13;9.67;;;3.33;;
71360;SDS011;59166;48.908;1.870;2022-12-19T14:31:21;10.65;;;3.42;;
71360;SDS011;59166;48.908;1.870;2022-12-19T14:36:25;11.57;;;4.07;;
71360;SDS011;59166;48.908;1.870;2022-12-19T14:41:34;7.93;;;3.20;;
71360;SDS011;59166;48.908;1.870;2022-12-19T14:46:39;8.00;;;2.88;;
71360;SDS011;59166;48.908;1.870;2022-12-19T14:51:41;7.95;;;2.70;;
71360;SDS011;59166;48.908;1.870;2022-12-19T14:56:43;7.60;;;2.90;;
71360;SDS011;59166;48.908;1.870;2022-12-19T15:01:49;8.03;;;2.97;;
71360;SDS011;59166;48.908;1.870;2022-12-19T15:06:54;7.65;;;3.10;;
71360;SDS011;59166;48.908;1.870;2022-12-19T15:12:10;7.60;;;3.10;;
71360;SDS011;59166;48.908;1.870;2022-12-19T15:17:17;8.13;;;3.00;;
71360;SDS011;59166;48.908;1.870;2022-12-19T15:22:21;8.52;;;2.72;;
71360;SDS011;59166;48.908;1.870;2022-12-19T15:27:22;8.88;;;3.10;;
71360;SDS011;59166;48.908;1.870;2022-12-19T15:32:23;8.33;;;3.37;;
71360;SDS011;59166;48.908;1.870;2022-12-19T15:37:25;7.80;;;2.88;;
71360;SDS011;59166;48.908;1.870;2022-12-19T15:42:26;8.00;;;3.10;;
71360;SDS011;59166;48.908;1.870;2022-12-19T15:47:28;7.77;;;3.10;;
71360;SDS011;59166;48.908;1.870;2022-12-19T15:52:32;9.50;;;3.40;;
71360;SDS011;59166;48.908;1.870;2022-12-19T15:57:34;8.15;;;3.50;;
71360;SDS011;59166;48.908;1.870;2022-12-19T16:02:37;8.87;;;3.57;;
71360;SDS011;59166;48.908;1.870;2022-12-19T16:07:40;8.20;;;3.20;;
71360;SDS011;59166;48.908;1.870;2022-12-19T16:12:41;7.72;;;3.20;;
71360;SDS011;59166;48.908;1.870;2022-12-19T16:17:47;12.63;;;3.20;;
71360;SDS011;59166;48.908;1.870;2022-12-19T16:22:50;8.90;;;3.42;;
71360;SDS011;59166;48.908;1.870;2022-12-19T16:27:52;8.40;;;3.00;;
71360;SDS011;59166;48.908;1.870;2022-12-19T16:32:55;8.73;;;3.40;;
71360;SDS011;59166;48.908;1.870;2022-12-19T16:37:57;8.63;;;3.13;;
71360;SDS011;59166;48.908;1.870;2022-12-19T16:43:02;8.65;;;3.15;;
71360;SDS011;59166;48.908;1.870;2022-12-19T16:53:24;8.13;;;3.23;;
71360;SDS011;59166;48.908;1.870;2022-12-19T16:58:37;9.15;;;3.17;;
71360;SDS011;59166;48.908;1.870;2022-12-19T17:04:08;7.78;;;3.17;;
71360;SDS011;59166;48.908;1.870;2022-12-19T17:09:27;8.47;;;3.10;;
71360;SDS011;59166;48.908;1.870;2022-12-19T17:14:31;8.20;;;3.17;;
71360;SDS011;59166;48.908;1.870;2022-12-19T17:19:36;9.55;;;3.00;;
71360;SDS011;59166;48.908;1.870;2022-12-19T17:24:39;9.10;;;3.33;;
71360;SDS011;59166;48.908;1.870;2022-12-19T17:29:40;10.27;;;3.10;;
71360;SDS011;59166;48.908;1.870;2022-12-19T17:34:41;9.23;;;3.38;;
71360;SDS011;59166;48.908;1.870;2022-12-19T17:39:44;9.00;;;3.23;;
71360;SDS011;59166;48.908;1.870;2022-12-19T17:44:45;9.38;;;3.47;;
71360;SDS011;59166;48.908;1.870;2022-12-19T17:49:46;7.55;;;3.38;;
71360;SDS011;59166;48.908;1.870;2022-12-19T17:54:49;9.87;;;3.80;;
71360;SDS011;59166;48.908;1.870;2022-12-19T17:59:50;10.27;;;3.50;;
71360;SDS011;59166;48.908;1.870;2022-12-19T18:04:50;10.47;;;3.57;;
71360;SDS011;59166;48.908;1.870;2022-12-19T18:09:53;10.90;;;4.05;;
71360;SDS011;59166;48.908;1.870;2022-12-19T18:14:54;8.38;;;3.40;;
71360;SDS011;59166;48.908;1.870;2022-12-19T18:19:55;8.83;;;3.90;;
71360;SDS011;59166;48.908;1.870;2022-12-19T18:24:57;8.43;;;3.58;;
71360;SDS011;59166;48.908;1.870;2022-12-19T18:29:58;8.37;;;3.57;;
71360;SDS011;59166;48.908;1.870;2022-12-19T18:34:58;8.65;;;3.10;;
71360;SDS011;59166;48.908;1.870;2022-12-19T18:40:01;8.03;;;3.20;;
71360;SDS011;59166;48.908;1.870;2022-12-19T18:45:01;8.85;;;3.88;;
71360;SDS011;59166;48.908;1.870;2022-12-19T18:50:04;10.13;;;3.30;;
71360;SDS011;59166;48.908;1.870;2022-12-19T18:55:16;8.67;;;3.20;;
71360;SDS011;59166;48.908;1.870;2022-12-19T19:00:19;8.02;;;3.25;;
71360;SDS011;59166;48.908;1.870;2022-12-19T19:05:26;8.82;;;3.22;;
71360;SDS011;59166;48.908;1.870;2022-12-19T19:10:30;9.60;;;3.53;;
71360;SDS011;59166;48.908;1.870;2022-12-19T19:15:31;8.20;;;3.70;;
71360;SDS011;59166;48.908;1.870;2022-12-19T19:20:34;7.88;;;3.22;;
71360;SDS011;59166;48.908;1.870;2022-12-19T19:25:39;9.43;;;3.57;;
71360;SDS011;59166;48.908;1.870;2022-12-19T19:30:40;8.30;;;3.10;;
71360;SDS011;59166;48.908;1.870;2022-12-19T19:35:41;9.00;;;3.58;;
71360;SDS011;59166;48.908;1.870;2022-12-19T19:40:44;8.83;;;3.10;;
71360;SDS011;59166;48.908;1.870;2022-12-19T19:45:45;7.63;;;3.37;;
71360;SDS011;59166;48.908;1.870;2022-12-19T19:50:46;8.50;;;3.20;;
71360;SDS011;59166;48.908;1.870;2022-12-19T19:55:53;8.50;;;3.13;;
71360;SDS011;59166;48.908;1.870;2022-12-19T20:00:55;8.27;;;3.10;;
71360;SDS011;59166;48.908;1.870;2022-12-19T20:05:58;9.00;;;3.20;;
71360;SDS011;59166;48.908;1.870;2022-12-19T20:11:01;8.15;;;2.88;;
71360;SDS011;59166;48.908;1.870;2022-12-19T20:16:02;8.85;;;3.40;;
71360;SDS011;59166;48.908;1.870;2022-12-19T20:21:05;8.67;;;3.47;;
71360;SDS011;59166;48.908;1.870;2022-12-19T20:26:09;8.07;;;3.28;;
71360;SDS011;59166;48.908;1.870;2022-12-19T20:31:11;8.35;;;3.00;;
71360;SDS011;59166;48.908;1.870;2022-12-19T20:36:12;9.73;;;4.07;;
71360;SDS011;59166;48.908;1.870;2022-12-19T20:52:21;8.40;;;3.07;;
71360;SDS011;59166;48.908;1.870;2022-12-19T20:57:22;9.30;;;3.00;;
71360;SDS011;59166;48.908;1.870;2022-12-19T21:02:24;8.30;;;3.20;;
71360;SDS011;59166;48.908;1.870;2022-12-19T21:13:23;7.87;;;2.90;;
71360;SDS011;59166;48.908;1.870;2022-12-19T21:18:25;7.30;;;2.90;;
71360;SDS011;59166;48.908;1.870;2022-12-19T21:23:26;7.65;;;3.05;;
71360;SDS011;59166;48.908;1.870;2022-12-19T21:28:27;7.60;;;3.10;;
71360;SDS011;59166;48.908;1.870;2022-12-19T21:33:29;8.40;;;3.03;;
71360;SDS011;59166;48.908;1.870;2022-12-19T21:38:31;9.65;;;3.25;;
71360;SDS011;59166;48.908;1.870;2022-12-19T21:48:57;9.40;;;3.03;;
71360;SDS011;59166;48.908;1.870;2022-12-19T21:54:02;9.40;;;3.20;;
71360;SDS011;59166;48.908;1.870;2022-12-19T21:59:24;9.15;;;3.40;;
71360;SDS011;59166;48.908;1.870;2022-12-19T22:21:06;10.37;;;3.67;;
71360;SDS011;59166;48.908;1.870;2022-12-19T22:26:29;8.65;;;2.88;;
71360;SDS011;59166;48.908;1.870;2022-12-19T22:31:31;8.98;;;3.38;;
71360;SDS011;59166;48.908;1.870;2022-12-19T22:47:54;11.60;;;3.78;;
71360;SDS011;59166;48.908;1.870;2022-12-19T22:53:14;8.45;;;3.17;;
71360;SDS011;59166;48.908;1.870;2022-12-19T22:58:25;8.93;;;3.20;;
71360;SDS011;59166;48.908;1.870;2022-12-19T23:20:36;8.10;;;2.97;;
71360;SDS011;59166;48.908;1.870;2022-12-19T23:32:01;8.37;;;3.33;;
71360;SDS011;59166;48.908;1.870;2022-12-19T23:42:51;9.48;;;3.50;;
71360;SDS011;59166;48.908;1.870;2022-12-19T23:54:07;10.00;;;3.58;;
71360;SDS011;59166;48.908;1.870;2022-12-19T23:59:22;8.52;;;3.30;;
